Eufaula, Alabama
Current Conditions -  °F | °C
As of 6:58 AM on Monday 20 Oct 2014 (Local Time) from KEUF Reporting Station
Haze Haze  
Wind Chill:   Ceiling: Unl
Heat Index:   Visibility: 5mi
Dew Point:   Wind: 0mph
Humidity: 93%   Direction: NA
Pressure: 30.1"   Gusts: NA
Location:  31.9°N, 85.14°W
Report Text: KEUF 201158Z AUTO 00000KT 5SM BR CLR 08/07 A3010 RMK AO2 SLP190 T00830072 10100 20078 53007 $
Loading
Personal Weather Stations






























Interactive Weather Map
Tropical Storm Tracking
New forecast layout! Learn more

10-Day Weather Forecast

Advertisements
Track Severe Weather on mobile